Time;durP1;ratioP1;P1;durP2;ratioP2;P2;SDS_P1;SDS_P2;PMS_P1;PMS_P2;Temp;Humidity;BMP_temperature;BMP_pressure;BME280_temperature;BME280_humidity;BME280_pressure;Samples;Min_cycle;Max_cycle;Signal;HPM_P1;HPM_P2
2023/03/02 00:02:21;;;;;;;34.13;29.48;;;2.60;99.90;;;;;;6186461;23;20012;-81
2023/03/02 00:04:57;;;;;;;36.03;31.33;;;2.60;99.90;;;;;;6210784;23;20013;-81
2023/03/02 00:07:32;;;;;;;42.28;32.83;;;2.60;99.90;;;;;;6185698;23;20040;-81
2023/03/02 00:09:58;;;;;;;41.47;33.25;;;2.60;99.90;;;;;;6211290;23;20095;-82
2023/03/02 00:12:26;;;;;;;43.58;34.38;;;2.60;99.90;;;;;;6186485;23;20451;-81
2023/03/02 00:14:51;;;;;;;45.40;36.10;;;2.60;99.90;;;;;;6211005;23;20150;-81
2023/03/02 00:17:17;;;;;;;43.58;35.33;;;2.70;99.90;;;;;;6211397;23;20174;-81
2023/03/02 00:19:43;;;;;;;44.92;36.15;;;2.60;99.90;;;;;;6186264;23;20056;-81
2023/03/02 00:22:09;;;;;;;41.35;34.30;;;2.60;99.90;;;;;;6185466;23;20016;-81
2023/03/02 00:24:35;;;;;;;43.78;34.70;;;2.60;99.90;;;;;;6212491;23;20560;-81
2023/03/02 00:27:00;;;;;;;41.00;34.15;;;2.60;99.90;;;;;;6185980;23;20039;-82
2023/03/02 00:29:26;;;;;;;41.42;33.00;;;2.60;99.90;;;;;;6188752;22;20008;-81
2023/03/02 00:31:52;;;;;;;45.80;33.78;;;3.10;99.90;;;;;;6221102;22;20421;-81
2023/03/02 00:34:18;;;;;;;40.00;33.55;;;2.60;99.90;;;;;;6273338;22;20015;-81
2023/03/02 00:36:44;;;;;;;43.42;34.83;;;2.60;99.90;;;;;;6246464;22;20304;-81
2023/03/02 00:39:09;;;;;;;42.88;33.38;;;2.60;99.90;;;;;;6221154;22;20217;-81
2023/03/02 00:41:35;;;;;;;42.13;32.90;;;2.60;99.90;;;;;;6246829;22;20026;-81
2023/03/02 00:44:00;;;;;;;41.67;31.95;;;2.60;99.90;;;;;;6246016;22;20012;-81
2023/03/02 00:46:27;;;;;;;44.47;34.17;;;2.60;99.90;;;;;;6273793;22;20012;-81
2023/03/02 00:48:53;;;;;;;42.38;32.38;;;2.60;99.90;;;;;;6246636;22;20012;-81
2023/03/02 00:51:19;;;;;;;44.38;32.92;;;2.50;99.90;;;;;;6245599;22;20083;-81
2023/03/02 00:53:45;;;;;;;38.55;30.90;;;2.50;99.90;;;;;;6220994;22;20081;-81
2023/03/02 00:56:10;;;;;;;39.15;31.38;;;2.50;99.90;;;;;;6273275;22;20011;-81
2023/03/02 00:58:36;;;;;;;38.85;30.80;;;2.50;99.90;;;;;;6273516;22;20015;-82
2023/03/02 01:01:09;;;;;;;40.42;31.92;;;2.50;99.90;;;;;;6220925;22;20030;-82
2023/03/02 01:03:35;;;;;;;47.67;33.28;;;2.50;99.90;;;;;;6220894;22;20109;-82
2023/03/02 01:06:01;;;;;;;41.50;33.05;;;2.50;99.90;;;;;;6245369;22;20430;-81
2023/03/02 01:08:26;;;;;;;43.28;34.92;;;2.60;99.90;;;;;;6245997;22;20011;-82
2023/03/02 01:10:52;;;;;;;41.58;33.42;;;2.50;99.90;;;;;;6246104;22;20062;-81
2023/03/02 01:13:18;;;;;;;45.75;35.25;;;2.40;99.90;;;;;;6246426;22;20019;-81
2023/03/02 01:15:45;;;;;;;43.63;33.83;;;2.40;99.90;;;;;;6245697;22;20018;-81
2023/03/02 01:18:10;;;;;;;43.95;33.47;;;2.40;99.90;;;;;;6274234;22;20318;-81
2023/03/02 01:20:36;;;;;;;44.17;32.15;;;2.40;99.90;;;;;;6220346;22;20011;-81
2023/03/02 01:23:02;;;;;;;41.67;33.17;;;2.40;99.90;;;;;;6246142;22;20036;-81
2023/03/02 01:25:28;;;;;;;41.50;31.95;;;2.40;99.90;;;;;;6245490;22;20012;-81
2023/03/02 01:27:53;;;;;;;43.22;32.08;;;2.40;99.90;;;;;;6246383;22;20054;-81
2023/03/02 01:30:19;;;;;;;46.67;33.80;;;2.40;99.90;;;;;;6272782;22;20012;-81
2023/03/02 01:32:45;;;;;;;42.78;33.35;;;2.30;99.90;;;;;;6273553;22;20031;-81
2023/03/02 01:35:11;;;;;;;44.78;33.28;;;2.40;99.90;;;;;;6244886;22;20039;-82
2023/03/02 01:37:37;;;;;;;42.30;32.63;;;2.30;99.90;;;;;;6245716;22;20344;-81
2023/03/02 01:40:05;;;;;;;44.08;32.63;;;2.30;99.90;;;;;;6273344;22;20055;-81
2023/03/02 01:42:37;;;;;;;44.40;34.05;;;2.30;99.90;;;;;;6245891;22;20486;-81
2023/03/02 01:45:03;;;;;;;44.85;33.58;;;2.30;99.90;;;;;;6272756;22;20035;-81
2023/03/02 01:47:37;;;;;;;48.40;34.08;;;2.30;99.90;;;;;;6246949;22;20008;-81
2023/03/02 01:50:20;;;;;;;47.60;34.40;;;2.30;99.90;;;;;;6245446;22;20012;-82
2023/03/02 01:52:47;;;;;;;45.43;32.77;;;2.30;99.90;;;;;;6245962;22;20478;-81
2023/03/02 01:55:19;;;;;;;47.83;33.58;;;2.20;99.90;;;;;;6245988;22;20232;-81
2023/03/02 01:57:48;;;;;;;42.15;32.17;;;2.20;99.90;;;;;;6246063;22;20007;-81
2023/03/02 02:00:22;;;;;;;41.45;31.58;;;2.20;99.90;;;;;;6273523;22;20004;-81
2023/03/02 02:02:49;;;;;;;45.72;32.70;;;2.30;99.90;;;;;;6220749;22;20319;-81
2023/03/02 02:05:22;;;;;;;42.70;31.20;;;2.20;99.90;;;;;;6244690;22;20042;-81
2023/03/02 02:07:48;;;;;;;43.22;32.78;;;2.20;99.90;;;;;;6220292;22;20030;-81
2023/03/02 02:10:13;;;;;;;43.30;32.30;;;2.20;99.90;;;;;;6246256;22;20439;-81
2023/03/02 02:12:39;;;;;;;44.53;32.95;;;2.20;99.90;;;;;;6219807;22;20098;-82
2023/03/02 02:15:06;;;;;;;44.90;33.35;;;2.30;99.90;;;;;;6272492;22;20626;-81
2023/03/02 02:17:31;;;;;;;44.03;33.83;;;2.20;99.90;;;;;;6220105;22;20012;-81
2023/03/02 02:20:09;;;;;;;47.75;34.33;;;2.20;99.90;;;;;;6219616;22;20015;-81
2023/03/02 02:23:00;;;;;;;53.17;36.47;;;2.20;99.90;;;;;;6245476;22;20081;-81
2023/03/02 02:25:43;;;;;;;50.75;35.85;;;2.20;99.90;;;;;;6244794;22;20400;-81
2023/03/02 02:28:20;;;;;;;50.97;36.20;;;2.10;99.90;;;;;;6245412;22;20019;-82
2023/03/02 02:30:51;;;;;;;53.95;36.97;;;2.00;99.90;;;;;;6245091;22;20027;-81
2023/03/02 02:33:22;;;;;;;55.95;36.92;;;2.00;99.90;;;;;;6244949;22;20040;-82
2023/03/02 02:35:50;;;;;;;53.30;37.50;;;2.00;99.90;;;;;;6219887;22;20460;-82
2023/03/02 02:38:19;;;;;;;47.67;35.10;;;2.00;99.90;;;;;;6273824;22;20008;-81
2023/03/02 02:40:48;;;;;;;57.05;36.58;;;2.00;99.90;;;;;;6245456;22;20530;-81
2023/03/02 02:43:16;;;;;;;62.97;37.58;;;1.90;99.90;;;;;;6245845;22;20069;-81
2023/03/02 02:45:43;;;;;;;56.60;36.88;;;1.90;99.90;;;;;;6272040;22;20007;-81
2023/03/02 02:48:17;;;;;;;63.28;38.03;;;1.90;99.90;;;;;;6244860;22;20329;-81
2023/03/02 02:50:43;;;;;;;62.97;38.72;;;1.80;99.90;;;;;;6272981;22;20008;-82
2023/03/02 02:53:25;;;;;;;61.67;38.90;;;1.80;99.90;;;;;;6245505;22;20008;-82
2023/03/02 02:55:55;;;;;;;59.75;37.78;;;1.70;99.90;;;;;;6219503;22;20018;-81
2023/03/02 02:58:32;;;;;;;61.10;38.47;;;1.80;99.90;;;;;;6245157;22;20061;-81
2023/03/02 03:00:59;;;;;;;59.40;40.28;;;1.80;99.90;;;;;;6219969;22;20011;-81
2023/03/02 03:03:32;;;;;;;59.05;39.75;;;1.80;99.90;;;;;;6244915;22;20443;-82
2023/03/02 03:06:00;;;;;;;58.45;38.50;;;1.70;99.90;;;;;;6245016;22;20284;-82
2023/03/02 03:08:44;;;;;;;59.72;39.10;;;1.80;99.90;;;;;;6245109;22;20004;-81
2023/03/02 03:11:22;;;;;;;56.50;39.33;;;2.30;99.90;;;;;;6245154;22;20090;-81
2023/03/02 03:13:53;;;;;;;56.83;39.22;;;1.80;99.90;;;;;;6244728;22;20031;-82
2023/03/02 03:16:19;;;;;;;67.05;41.33;;;1.80;99.90;;;;;;6219120;22;20031;-82
2023/03/02 03:18:48;;;;;;;82.55;41.10;;;1.80;99.90;;;;;;6219783;22;20083;-81
2023/03/02 03:21:17;;;;;;;64.32;40.80;;;1.80;99.90;;;;;;6245387;22;20078;-81
2023/03/02 03:23:43;;;;;;;73.07;41.90;;;1.80;99.90;;;;;;6219261;22;20026;-81
2023/03/02 03:26:09;;;;;;;81.20;40.35;;;1.80;99.90;;;;;;6245560;22;20039;-81
2023/03/02 03:28:34;;;;;;;173.10;45.58;;;1.80;99.90;;;;;;6244806;22;20015;-82
2023/03/02 03:31:00;;;;;;;151.80;45.10;;;1.80;99.90;;;;;;6244008;22;20012;-81
2023/03/02 03:33:26;;;;;;;85.13;43.60;;;1.70;99.90;;;;;;6244869;22;20019;-81
2023/03/02 03:35:51;;;;;;;128.60;45.80;;;1.70;99.90;;;;;;6244328;22;20012;-82
2023/03/02 03:38:17;;;;;;;279.60;46.63;;;1.60;99.90;;;;;;6219566;22;20012;-81
2023/03/02 03:40:43;;;;;;;409.15;64.30;;;1.70;99.90;;;;;;6219765;22;20012;-82
2023/03/02 03:43:08;;;;;;;593.53;60.50;;;1.60;99.90;;;;;;6272388;22;20103;-82
2023/03/02 03:45:34;;;;;;;194.45;47.58;;;1.50;99.90;;;;;;6218145;22;20087;-81
2023/03/02 03:48:00;;;;;;;196.43;47.78;;;1.50;99.90;;;;;;6219637;22;20015;-82
2023/03/02 03:50:26;;;;;;;109.78;47.53;;;1.50;99.90;;;;;;6272179;22;20015;-81
2023/03/02 03:52:51;;;;;;;205.88;51.63;;;1.50;99.90;;;;;;6219655;22;20315;-81
2023/03/02 03:55:18;;;;;;;217.52;51.25;;;1.50;99.90;;;;;;6271686;22;20007;-82
2023/03/02 03:57:44;;;;;;;125.93;49.85;;;1.50;99.90;;;;;;6219757;22;20012;-81
2023/03/02 04:00:13;;;;;;;170.63;55.97;;;1.50;99.90;;;;;;6244520;22;20011;-81
2023/03/02 04:02:40;;;;;;;115.38;51.75;;;1.50;99.90;;;;;;6245310;22;20316;-81
2023/03/02 04:05:06;;;;;;;138.00;54.30;;;1.50;99.90;;;;;;6244157;22;20055;-82
2023/03/02 04:07:33;;;;;;;173.23;55.15;;;1.50;99.90;;;;;;6244873;22;20023;-81
2023/03/02 04:10:02;;;;;;;364.08;69.22;;;1.50;99.90;;;;;;6244704;22;20057;-83
2023/03/02 04:12:31;;;;;;;359.92;64.57;;;1.50;99.90;;;;;;6219513;22;20011;-82
2023/03/02 04:14:57;;;;;;;367.88;62.47;;;1.40;99.90;;;;;;6218573;22;20065;-81
2023/03/02 04:17:22;;;;;;;406.38;63.15;;;1.50;99.90;;;;;;6244888;22;20007;-81
2023/03/02 04:19:48;;;;;;;301.40;60.15;;;1.50;99.90;;;;;;6244547;22;20046;-82
2023/03/02 04:22:15;;;;;;;487.70;73.68;;;1.50;99.90;;;;;;6271935;22;20077;-82
2023/03/02 04:24:42;;;;;;;433.05;68.43;;;1.50;99.90;;;;;;6244238;22;20038;-82
2023/03/02 04:27:08;;;;;;;230.93;57.60;;;1.40;99.90;;;;;;6244535;22;20031;-81
2023/03/02 04:29:34;;;;;;;661.17;83.47;;;1.40;99.90;;;;;;6218286;22;20012;-82
2023/03/02 04:32:00;;;;;;;384.92;65.70;;;1.40;99.90;;;;;;6244446;22;20019;-81
2023/03/02 04:34:25;;;;;;;477.30;65.13;;;1.40;99.90;;;;;;6244351;22;20015;-81
2023/03/02 04:36:51;;;;;;;284.75;61.08;;;1.40;99.90;;;;;;6246556;22;20014;-81
2023/03/02 04:39:18;;;;;;;540.28;82.20;;;1.40;99.90;;;;;;6220732;22;20008;-82
2023/03/02 04:41:45;;;;;;;444.02;73.68;;;1.40;99.90;;;;;;6221064;22;20102;-81
2023/03/02 04:44:11;;;;;;;274.70;66.22;;;1.40;99.90;;;;;;6245520;22;20019;-81
2023/03/02 04:46:37;;;;;;;294.92;66.20;;;1.40;99.90;;;;;;6246590;22;20015;-82
2023/03/02 04:49:04;;;;;;;198.55;60.42;;;1.40;99.90;;;;;;6220876;22;20008;-81
2023/03/02 04:51:33;;;;;;;307.52;62.97;;;1.40;99.90;;;;;;6220729;22;20036;-82
2023/03/02 04:54:01;;;;;;;162.55;60.00;;;1.40;99.90;;;;;;6220160;22;20039;-81
2023/03/02 04:56:27;;;;;;;307.15;66.05;;;1.50;99.90;;;;;;6246481;22;20122;-80
2023/03/02 04:58:53;;;;;;;184.75;58.08;;;1.50;99.90;;;;;;6246720;22;20116;-82
2023/03/02 05:01:20;;;;;;;338.08;61.63;;;1.40;99.90;;;;;;6247973;22;20012;-82
2023/03/02 05:03:46;;;;;;;291.55;52.85;;;1.40;99.90;;;;;;6275588;22;20012;-81
2023/03/02 05:06:12;;;;;;;379.05;63.33;;;1.40;99.90;;;;;;6247471;22;20030;-82
2023/03/02 05:08:38;;;;;;;309.38;57.92;;;1.40;99.90;;;;;;6274611;22;20011;-82
2023/03/02 05:11:06;;;;;;;373.80;57.90;;;1.40;99.90;;;;;;6247365;22;20338;-82
2023/03/02 05:13:33;;;;;;;320.77;65.57;;;1.30;99.90;;;;;;6274179;22;20369;-82
2023/03/02 05:15:58;;;;;;;474.73;64.53;;;1.30;99.90;;;;;;6247159;22;20057;-81
2023/03/02 05:18:24;;;;;;;238.07;55.13;;;1.20;99.90;;;;;;6247211;22;20011;-81
2023/03/02 05:20:51;;;;;;;228.52;57.90;;;1.30;99.90;;;;;;6221737;22;20011;-81
2023/03/02 05:23:22;;;;;;;222.88;56.90;;;1.30;99.90;;;;;;6246909;22;20033;-81
2023/03/02 05:25:52;;;;;;;488.48;73.38;;;1.30;99.90;;;;;;6221539;22;20133;-80
2023/03/02 05:28:20;;;;;;;444.70;68.90;;;1.30;99.90;;;;;;6220625;22;20031;-80
2023/03/02 05:30:46;;;;;;;323.80;56.67;;;1.20;99.90;;;;;;6221328;22;20031;-80
2023/03/02 05:33:12;;;;;;;281.58;60.95;;;1.20;99.90;;;;;;6247557;22;20083;-80
2023/03/02 05:35:38;;;;;;;196.57;55.40;;;1.20;99.90;;;;;;6247298;22;20050;-80
2023/03/02 05:38:04;;;;;;;342.88;57.28;;;1.30;99.90;;;;;;6246948;22;20008;-82
2023/03/02 05:40:30;;;;;;;217.32;50.35;;;1.20;99.90;;;;;;6221507;22;20165;-81
2023/03/02 05:42:56;;;;;;;282.27;60.05;;;1.20;99.90;;;;;;6246118;22;20019;-81
2023/03/02 05:45:28;;;;;;;237.27;54.42;;;1.20;99.90;;;;;;6274214;22;20058;-81
2023/03/02 05:47:54;;;;;;;193.80;55.45;;;1.20;99.90;;;;;;6274328;22;20065;-82
2023/03/02 05:50:19;;;;;;;114.38;47.90;;;1.20;99.90;;;;;;6247217;22;20019;-82
2023/03/02 05:52:45;;;;;;;183.52;53.97;;;1.20;99.90;;;;;;6247155;22;20008;-82
2023/03/02 05:55:12;;;;;;;196.13;50.83;;;1.30;99.90;;;;;;6221017;22;20015;-81
2023/03/02 05:57:38;;;;;;;284.20;48.58;;;1.30;99.90;;;;;;6247017;22;20004;-81
2023/03/02 06:00:05;;;;;;;431.02;55.50;;;1.30;99.90;;;;;;6221403;22;20329;-81
2023/03/02 06:02:31;;;;;;;282.33;52.08;;;1.20;99.90;;;;;;6221109;22;20411;-81
2023/03/02 06:04:56;;;;;;;235.57;55.85;;;1.20;99.90;;;;;;6273874;22;20019;-81
2023/03/02 06:07:22;;;;;;;295.85;55.08;;;1.20;99.90;;;;;;6246678;22;20018;-81
2023/03/02 06:09:49;;;;;;;337.33;60.28;;;1.20;99.90;;;;;;6220745;22;20090;-81
2023/03/02 06:12:16;;;;;;;202.02;49.55;;;1.20;99.90;;;;;;6246558;22;20083;-81
2023/03/02 06:14:43;;;;;;;160.90;45.75;;;1.20;99.90;;;;;;6246427;22;20082;-81
2023/03/02 06:17:09;;;;;;;413.73;56.03;;;1.20;99.90;;;;;;6246819;22;20008;-82
2023/03/02 06:19:35;;;;;;;371.90;57.67;;;1.20;99.90;;;;;;6221295;22;20046;-81
2023/03/02 06:22:01;;;;;;;405.92;63.63;;;1.90;99.90;;;;;;6273887;22;20012;-81
2023/03/02 06:24:27;;;;;;;148.68;50.35;;;1.20;99.90;;;;;;6245429;22;20012;-81
2023/03/02 06:26:53;;;;;;;306.20;60.85;;;1.20;99.90;;;;;;6246256;22;20016;-81
2023/03/02 06:29:20;;;;;;;251.70;54.80;;;1.20;99.90;;;;;;6246211;22;20003;-81
2023/03/02 06:31:46;;;;;;;314.83;58.60;;;1.30;99.90;;;;;;6273857;22;20016;-82
2023/03/02 06:34:12;;;;;;;327.65;54.67;;;1.30;99.90;;;;;;6221423;22;20098;-81
2023/03/02 06:36:37;;;;;;;160.80;52.88;;;1.30;99.90;;;;;;6246376;22;20387;-82
2023/03/02 06:39:04;;;;;;;382.25;70.15;;;1.30;99.90;;;;;;6245710;22;20007;-82
2023/03/02 06:41:32;;;;;;;351.02;67.97;;;1.30;99.90;;;;;;6273813;22;20026;-81
2023/03/02 06:44:00;;;;;;;398.23;62.67;;;1.30;99.90;;;;;;6220974;22;20007;-82
2023/03/02 06:46:26;;;;;;;311.02;61.65;;;1.30;99.90;;;;;;6221155;22;20082;-83
2023/03/02 06:48:52;;;;;;;316.98;65.70;;;1.40;99.90;;;;;;6246676;22;20045;-82
2023/03/02 06:51:18;;;;;;;292.52;64.00;;;1.40;99.90;;;;;;6273622;22;20039;-82
2023/03/02 06:53:43;;;;;;;432.73;71.50;;;1.40;99.90;;;;;;6246061;22;20319;-81
2023/03/02 06:56:09;;;;;;;469.55;69.88;;;1.40;99.90;;;;;;6220970;22;20277;-82
2023/03/02 06:58:36;;;;;;;186.02;53.30;;;1.40;99.90;;;;;;6246352;22;20439;-82
2023/03/02 07:01:02;;;;;;;351.95;62.95;;;1.40;99.90;;;;;;6246114;22;20008;-82
2023/03/02 07:03:28;;;;;;;445.77;76.57;;;1.50;99.90;;;;;;6273309;22;20422;-82
2023/03/02 07:05:53;;;;;;;289.48;66.03;;;1.50;99.90;;;;;;6273054;22;20039;-82
2023/03/02 07:08:19;;;;;;;297.67;68.07;;;1.50;99.90;;;;;;6245479;22;20019;-82
2023/03/02 07:10:45;;;;;;;492.70;96.20;;;1.60;99.90;;;;;;6245817;22;20472;-83
2023/03/02 07:13:10;;;;;;;327.65;68.55;;;1.60;99.90;;;;;;6246450;22;20015;-82
2023/03/02 07:15:38;;;;;;;975.75;114.18;;;1.60;99.90;;;;;;6273616;22;20316;-82
2023/03/02 07:18:04;;;;;;;263.23;56.15;;;1.70;99.90;;;;;;6273694;22;20050;-82
2023/03/02 07:20:30;;;;;;;363.00;61.88;;;1.60;99.90;;;;;;6273336;22;20016;-82
2023/03/02 07:22:56;;;;;;;295.70;53.22;;;1.50;99.90;;;;;;6245848;22;20074;-82
2023/03/02 07:25:21;;;;;;;117.68;43.45;;;1.50;99.90;;;;;;6273705;22;20026;-82
2023/03/02 07:27:47;;;;;;;279.33;54.38;;;1.40;99.90;;;;;;6246073;22;20319;-82
2023/03/02 07:30:14;;;;;;;151.73;45.28;;;1.40;99.90;;;;;;6245998;22;20061;-82
2023/03/02 07:32:40;;;;;;;195.05;50.70;;;1.50;99.90;;;;;;6220850;22;20038;-82
2023/03/02 07:35:06;;;;;;;248.32;57.63;;;1.40;99.90;;;;;;6246328;22;20008;-82
2023/03/02 07:37:32;;;;;;;157.65;51.30;;;1.40;99.90;;;;;;6220016;22;20435;-82
2023/03/02 07:39:58;;;;;;;202.32;51.53;;;1.40;99.90;;;;;;6245849;22;20088;-82
2023/03/02 07:42:23;;;;;;;189.75;50.75;;;1.40;99.90;;;;;;6245938;22;20012;-82
2023/03/02 07:44:52;;;;;;;325.95;56.10;;;1.40;99.90;;;;;;6246203;22;20076;-82
2023/03/02 07:47:18;;;;;;;305.25;66.50;;;1.50;99.90;;;;;;6273292;22;20012;-81
2023/03/02 07:49:43;;;;;;;310.02;56.92;;;1.50;99.90;;;;;;6245778;22;20014;-81
2023/03/02 07:52:09;;;;;;;376.70;58.90;;;1.50;99.90;;;;;;6272401;22;20091;-81
2023/03/02 07:54:34;;;;;;;360.50;50.30;;;1.50;99.90;;;;;;6218101;22;20046;-82
2023/03/02 07:57:00;;;;;;;364.80;56.72;;;1.40;99.90;;;;;;6245414;22;20047;-82
2023/03/02 07:59:27;;;;;;;238.40;52.28;;;1.30;99.90;;;;;;6220429;22;20008;-82
2023/03/02 08:01:53;;;;;;;294.15;55.10;;;1.20;99.90;;;;;;6245250;22;20074;-82
2023/03/02 08:04:18;;;;;;;193.57;44.25;;;1.30;99.90;;;;;;6245662;22;20012;-82
2023/03/02 08:06:44;;;;;;;316.95;51.33;;;1.20;99.90;;;;;;6245051;22;20047;-82
2023/03/02 08:09:09;;;;;;;179.40;49.15;;;1.30;99.90;;;;;;6245636;22;20091;-82
2023/03/02 08:11:35;;;;;;;277.13;47.17;;;1.30;99.90;;;;;;6246964;22;20461;-82
2023/03/02 08:14:02;;;;;;;192.75;50.78;;;1.40;99.90;;;;;;6222517;22;20008;-81
2023/03/02 08:16:28;;;;;;;108.85;47.97;;;1.30;99.90;;;;;;6222241;22;20008;-82
2023/03/02 08:18:54;;;;;;;149.30;49.40;;;1.40;99.90;;;;;;6248106;22;20008;-82
2023/03/02 08:21:22;;;;;;;166.45;48.88;;;1.50;99.90;;;;;;6273227;22;20442;-81
2023/03/02 08:23:49;;;;;;;133.25;48.22;;;1.50;99.90;;;;;;6247334;22;20012;-82
2023/03/02 08:26:16;;;;;;;145.43;42.70;;;1.60;99.90;;;;;;6275053;22;20050;-82
2023/03/02 08:28:41;;;;;;;156.68;49.03;;;1.60;99.90;;;;;;6274945;22;20008;-82
2023/03/02 08:31:08;;;;;;;239.38;46.97;;;1.70;99.90;;;;;;6246534;22;20458;-81
2023/03/02 08:33:34;;;;;;;206.88;51.10;;;1.60;99.90;;;;;;6222249;22;20145;-82
2023/03/02 08:36:13;;;;;;;82.68;42.00;;;1.70;99.90;;;;;;6246462;22;20016;-81
2023/03/02 08:38:38;;;;;;;77.72;40.67;;;1.70;99.90;;;;;;6247440;22;20012;-81
2023/03/02 08:41:07;;;;;;;130.65;44.80;;;1.80;99.90;;;;;;6246658;22;20516;-82
2023/03/02 08:43:33;;;;;;;168.48;45.22;;;1.70;99.90;;;;;;6247311;22;20077;-81
2023/03/02 08:45:59;;;;;;;408.92;50.35;;;1.80;99.90;;;;;;6247587;22;20012;-82
2023/03/02 08:48:26;;;;;;;109.60;44.55;;;1.80;99.90;;;;;;6274426;22;20454;-81
2023/03/02 08:51:01;;;;;;;108.50;40.75;;;1.70;99.90;;;;;;6273689;22;20007;-82
2023/03/02 08:53:28;;;;;;;75.57;37.90;;;1.90;99.90;;;;;;6246764;22;20012;-81
2023/03/02 08:55:53;;;;;;;199.75;46.25;;;2.00;99.90;;;;;;6247103;22;20384;-81
2023/03/02 08:58:19;;;;;;;130.93;40.17;;;1.80;99.90;;;;;;6247582;22;20134;-82
2023/03/02 09:00:45;;;;;;;74.90;40.60;;;1.80;99.90;;;;;;6246958;22;20012;-82
2023/03/02 09:03:11;;;;;;;118.57;40.53;;;2.20;99.90;;;;;;6221711;22;20018;-82
2023/03/02 09:05:36;;;;;;;63.75;39.67;;;2.10;99.90;;;;;;6246351;22;20089;-82
2023/03/02 09:08:03;;;;;;;71.90;42.17;;;2.20;99.90;;;;;;6246884;22;20430;-82
2023/03/02 09:10:29;;;;;;;59.47;37.08;;;2.40;99.90;;;;;;6274278;22;20015;-82
2023/03/02 09:12:54;;;;;;;61.25;36.25;;;2.50;99.90;;;;;;6246402;22;20008;-82
2023/03/02 09:15:20;;;;;;;59.20;38.50;;;2.40;99.90;;;;;;6246831;22;20069;-81
2023/03/02 09:17:45;;;;;;;70.32;36.63;;;2.30;99.90;;;;;;6221532;22;20014;-81
2023/03/02 09:20:11;;;;;;;199.18;41.42;;;2.40;99.90;;;;;;6246294;22;20004;-82
2023/03/02 09:22:37;;;;;;;54.65;35.72;;;2.40;99.90;;;;;;6246260;22;20090;-82
2023/03/02 09:25:04;;;;;;;52.83;35.13;;;2.50;99.90;;;;;;6246734;22;20062;-81
2023/03/02 09:27:30;;;;;;;111.20;36.45;;;2.50;99.90;;;;;;6246447;22;20399;-82
2023/03/02 09:29:56;;;;;;;72.75;36.17;;;2.50;99.90;;;;;;6246355;22;20042;-82
2023/03/02 09:32:22;;;;;;;67.72;37.10;;;2.60;99.90;;;;;;6221009;22;20027;-82
2023/03/02 09:34:48;;;;;;;52.00;35.53;;;2.60;99.90;;;;;;6246631;22;20008;-82
2023/03/02 09:37:13;;;;;;;45.78;32.25;;;2.50;99.90;;;;;;6246587;22;20086;-82
2023/03/02 09:39:39;;;;;;;50.92;33.97;;;2.60;99.90;;;;;;6247108;22;20008;-81
2023/03/02 09:42:13;;;;;;;47.45;32.58;;;2.70;99.90;;;;;;6220798;22;20012;-81
2023/03/02 09:44:45;;;;;;;46.83;33.30;;;2.90;99.90;;;;;;6247133;22;20016;-81
2023/03/02 09:47:25;;;;;;;49.88;32.42;;;3.00;99.90;;;;;;6246443;22;20083;-81
2023/03/02 09:50:11;;;;;;;44.53;32.65;;;3.00;99.90;;;;;;6221416;22;20011;-81
2023/03/02 09:52:39;;;;;;;49.42;34.35;;;3.00;99.90;;;;;;6220901;22;20012;-82
2023/03/02 09:55:14;;;;;;;49.70;33.70;;;3.10;99.90;;;;;;6246837;22;20004;-81
2023/03/02 09:57:40;;;;;;;49.17;34.08;;;3.10;99.90;;;;;;6221168;22;20407;-82
2023/03/02 10:00:30;;;;;;;44.38;32.05;;;3.20;99.90;;;;;;6273450;22;20019;-82
2023/03/02 10:03:05;;;;;;;46.30;33.45;;;3.20;99.90;;;;;;6219478;22;20016;-81
2023/03/02 10:05:52;;;;;;;46.63;32.50;;;3.20;99.90;;;;;;6246356;22;20018;-81
2023/03/02 10:08:25;;;;;;;42.30;31.20;;;3.30;99.90;;;;;;6246321;22;20012;-82
2023/03/02 10:11:17;;;;;;;43.88;31.50;;;3.50;99.90;;;;;;6245915;22;20022;-81
2023/03/02 10:13:52;;;;;;;40.28;29.38;;;3.50;99.90;;;;;;6220609;22;20012;-80
2023/03/02 10:16:40;;;;;;;39.50;28.45;;;3.50;99.90;;;;;;6273221;22;20042;-80
2023/03/02 10:19:23;;;;;;;36.33;27.58;;;3.50;99.90;;;;;;6246472;22;20012;-81
2023/03/02 10:22:11;;;;;;;36.22;26.50;;;3.50;99.90;;;;;;6245748;22;20016;-80
2023/03/02 10:24:38;;;;;;;36.95;26.95;;;3.40;99.90;;;;;;6245821;22;20041;-80
2023/03/02 10:27:30;;;;;;;37.13;26.20;;;3.50;99.90;;;;;;6246469;22;20050;-80
2023/03/02 10:30:15;;;;;;;29.83;24.00;;;3.50;99.90;;;;;;6245638;22;20022;-80
2023/03/02 10:32:46;;;;;;;29.48;22.67;;;3.50;99.90;;;;;;6245009;22;20090;-80
2023/03/02 10:35:16;;;;;;;31.38;24.77;;;3.60;99.90;;;;;;6246320;22;20011;-80
2023/03/02 10:37:42;;;;;;;32.22;23.58;;;3.60;99.90;;;;;;6273411;22;20008;-80
2023/03/02 10:40:47;;;;;;;30.48;23.23;;;3.70;99.90;;;;;;6246008;22;20453;-81
2023/03/02 10:43:41;;;;;;;30.10;23.67;;;3.80;99.90;;;;;;6220333;22;20012;-81
2023/03/02 10:46:08;;;;;;;31.27;23.40;;;3.90;99.90;;;;;;6273125;22;20334;-81
2023/03/02 10:48:55;;;;;;;30.63;22.77;;;4.10;99.90;;;;;;6245916;22;20070;-80
2023/03/02 10:51:23;;;;;;;26.88;20.65;;;3.90;99.90;;;;;;6245867;22;20008;-81
2023/03/02 10:53:49;;;;;;;25.55;20.33;;;4.00;99.90;;;;;;6245963;22;20012;-80
2023/03/02 10:56:20;;;;;;;28.77;22.00;;;3.90;99.90;;;;;;6220631;22;20444;-80
2023/03/02 10:58:45;;;;;;;28.17;21.17;;;3.80;99.90;;;;;;6245785;22;20003;-80
2023/03/02 11:01:17;;;;;;;29.77;20.98;;;3.90;99.90;;;;;;6244946;22;20482;-80
2023/03/02 11:03:54;;;;;;;28.65;23.00;;;4.00;99.90;;;;;;6245600;22;20061;-81
2023/03/02 11:06:23;;;;;;;25.73;19.02;;;4.00;99.90;;;;;;6245796;22;20016;-81
2023/03/02 11:09:03;;;;;;;26.05;19.17;;;4.00;99.90;;;;;;6246150;22;20044;-81
2023/03/02 11:11:29;;;;;;;24.10;18.55;;;4.10;99.90;;;;;;6219692;22;20020;-80
2023/03/02 11:14:13;;;;;;;26.17;19.80;;;4.20;99.90;;;;;;6220500;22;20012;-81
2023/03/02 11:16:38;;;;;;;25.20;19.25;;;4.30;99.90;;;;;;6245801;22;20008;-81
2023/03/02 11:19:11;;;;;;;24.35;19.15;;;4.30;99.90;;;;;;6246193;22;20012;-80
2023/03/02 11:21:43;;;;;;;22.83;17.70;;;4.50;99.90;;;;;;6272646;22;20046;-80
2023/03/02 11:24:22;;;;;;;22.02;17.50;;;4.70;99.90;;;;;;6220339;22;20011;-81
2023/03/02 11:26:53;;;;;;;22.85;17.83;;;4.50;99.90;;;;;;6245771;22;20273;-81
2023/03/02 11:29:29;;;;;;;24.27;19.05;;;4.60;99.90;;;;;;6272318;22;20015;-80
2023/03/02 11:32:02;;;;;;;25.75;19.15;;;4.50;99.90;;;;;;6220183;22;20042;-81
2023/03/02 11:34:45;;;;;;;23.13;18.65;;;4.50;99.90;;;;;;6246292;22;20069;-81
2023/03/02 11:37:17;;;;;;;23.07;18.57;;;4.60;99.90;;;;;;6247279;22;20011;-81
2023/03/02 11:39:48;;;;;;;23.15;19.08;;;4.70;99.90;;;;;;6245885;22;20077;-81
2023/03/02 11:42:37;;;;;;;24.30;18.48;;;4.70;99.90;;;;;;6272842;22;20011;-81
2023/03/02 11:45:18;;;;;;;24.10;17.70;;;4.80;99.90;;;;;;6246458;22;20034;-81
2023/03/02 11:47:59;;;;;;;21.17;16.63;;;4.50;99.90;;;;;;6247892;22;20008;-82
2023/03/02 11:50:25;;;;;;;21.85;17.35;;;4.50;99.90;;;;;;6248066;22;20345;-80
2023/03/02 11:52:57;;;;;;;23.65;18.33;;;4.50;99.90;;;;;;6222572;22;20015;-80
2023/03/02 11:55:30;;;;;;;24.23;18.67;;;4.60;99.90;;;;;;6222065;22;20016;-81
2023/03/02 11:58:00;;;;;;;24.90;18.42;;;4.70;99.90;;;;;;6274426;22;20012;-80
2023/03/02 12:00:36;;;;;;;24.10;18.88;;;4.80;99.90;;;;;;6275005;22;20012;-80
2023/03/02 12:03:01;;;;;;;22.60;17.88;;;5.00;99.90;;;;;;6245027;22;20051;-80
2023/03/02 12:05:31;;;;;;;25.63;18.05;;;5.20;99.90;;;;;;6247506;22;20314;-80
2023/03/02 12:08:18;;;;;;;25.17;17.80;;;5.30;99.90;;;;;;6222580;22;20402;-81
2023/03/02 12:10:55;;;;;;;21.33;17.38;;;5.40;99.90;;;;;;6272130;22;20016;-81
2023/03/02 12:13:29;;;;;;;23.42;18.02;;;5.40;99.90;;;;;;6221660;22;20339;-81
2023/03/02 12:15:55;;;;;;;26.17;19.05;;;5.40;99.90;;;;;;6247717;22;20364;-80
2023/03/02 12:18:21;;;;;;;25.88;20.20;;;5.40;99.90;;;;;;6247734;22;20097;-81
2023/03/02 12:21:01;;;;;;;25.92;19.33;;;5.50;99.90;;;;;;6248001;22;20011;-81
2023/03/02 12:23:29;;;;;;;24.45;19.58;;;5.50;99.90;;;;;;6248471;22;20083;-81
2023/03/02 12:26:29;;;;;;;23.33;18.55;;;5.60;99.90;;;;;;6222169;22;20484;-81
2023/03/02 12:28:59;;;;;;;24.50;18.17;;;5.60;99.90;;;;;;6221872;22;20012;-81
2023/03/02 12:31:24;;;;;;;24.35;18.70;;;5.50;99.90;;;;;;6247148;22;20015;-81
2023/03/02 12:33:51;;;;;;;23.88;18.35;;;5.50;99.90;;;;;;6222550;22;20008;-81
2023/03/02 12:36:34;;;;;;;23.73;18.17;;;5.50;99.90;;;;;;6275093;22;20012;-81
2023/03/02 12:39:20;;;;;;;27.27;20.48;;;5.40;99.90;;;;;;6248197;22;20079;-81
2023/03/02 12:42:03;;;;;;;29.90;22.50;;;5.30;99.90;;;;;;6246643;22;20012;-81
2023/03/02 12:44:45;;;;;;;30.50;21.15;;;5.50;99.90;;;;;;6248120;22;20019;-80